sensor_id;sensor_type;location;lat;lon;timestamp;P1;durP1;ratioP1;P2;durP2;ratioP2
67442;SDS011;54311;51.726;5.154;2022-12-24T00:00:17;42.45;;;8.52;;
67442;SDS011;54311;51.726;5.154;2022-12-24T00:02:42;44.63;;;7.60;;
67442;SDS011;54311;51.726;5.154;2022-12-24T00:05:08;44.03;;;9.43;;
67442;SDS011;54311;51.726;5.154;2022-12-24T00:07:34;43.42;;;10.40;;
67442;SDS011;54311;51.726;5.154;2022-12-24T00:09:59;46.92;;;8.10;;
67442;SDS011;54311;51.726;5.154;2022-12-24T00:12:25;59.05;;;9.65;;
67442;SDS011;54311;51.726;5.154;2022-12-24T00:14:50;38.33;;;7.72;;
67442;SDS011;54311;51.726;5.154;2022-12-24T00:17:15;51.78;;;8.30;;
67442;SDS011;54311;51.726;5.154;2022-12-24T00:19:41;41.60;;;8.90;;
67442;SDS011;54311;51.726;5.154;2022-12-24T00:22:08;42.33;;;8.73;;
67442;SDS011;54311;51.726;5.154;2022-12-24T00:24:33;43.78;;;9.35;;
67442;SDS011;54311;51.726;5.154;2022-12-24T00:26:58;37.75;;;9.35;;
67442;SDS011;54311;51.726;5.154;2022-12-24T00:29:24;58.45;;;9.82;;
67442;SDS011;54311;51.726;5.154;2022-12-24T00:31:49;45.58;;;8.82;;
67442;SDS011;54311;51.726;5.154;2022-12-24T00:34:15;46.63;;;8.50;;
67442;SDS011;54311;51.726;5.154;2022-12-24T00:36:40;56.58;;;10.38;;
67442;SDS011;54311;51.726;5.154;2022-12-24T00:39:05;50.35;;;8.77;;
67442;SDS011;54311;51.726;5.154;2022-12-24T00:41:31;58.38;;;10.57;;
67442;SDS011;54311;51.726;5.154;2022-12-24T00:44:00;47.33;;;9.98;;
67442;SDS011;54311;51.726;5.154;2022-12-24T00:46:27;54.53;;;11.20;;
67442;SDS011;54311;51.726;5.154;2022-12-24T00:48:54;52.72;;;10.23;;
67442;SDS011;54311;51.726;5.154;2022-12-24T00:51:19;48.92;;;8.98;;
67442;SDS011;54311;51.726;5.154;2022-12-24T00:53:45;44.75;;;8.32;;
67442;SDS011;54311;51.726;5.154;2022-12-24T00:56:10;39.05;;;8.10;;
67442;SDS011;54311;51.726;5.154;2022-12-24T00:58:36;46.75;;;8.65;;
67442;SDS011;54311;51.726;5.154;2022-12-24T01:01:01;43.40;;;8.32;;
67442;SDS011;54311;51.726;5.154;2022-12-24T01:03:27;43.58;;;8.07;;
67442;SDS011;54311;51.726;5.154;2022-12-24T01:06:02;41.05;;;7.97;;
67442;SDS011;54311;51.726;5.154;2022-12-24T01:08:32;52.13;;;9.75;;
67442;SDS011;54311;51.726;5.154;2022-12-24T01:10:58;34.55;;;7.93;;
67442;SDS011;54311;51.726;5.154;2022-12-24T01:13:24;48.78;;;7.95;;
67442;SDS011;54311;51.726;5.154;2022-12-24T01:15:49;37.17;;;7.88;;
67442;SDS011;54311;51.726;5.154;2022-12-24T01:18:15;49.95;;;8.50;;
67442;SDS011;54311;51.726;5.154;2022-12-24T01:20:40;41.63;;;9.77;;
67442;SDS011;54311;51.726;5.154;2022-12-24T01:23:06;42.42;;;7.72;;
67442;SDS011;54311;51.726;5.154;2022-12-24T01:25:31;44.88;;;8.57;;
67442;SDS011;54311;51.726;5.154;2022-12-24T01:27:56;40.28;;;8.13;;
67442;SDS011;54311;51.726;5.154;2022-12-24T01:30:22;40.58;;;9.45;;
67442;SDS011;54311;51.726;5.154;2022-12-24T01:32:47;50.53;;;7.70;;
67442;SDS011;54311;51.726;5.154;2022-12-24T01:35:12;45.47;;;8.98;;
67442;SDS011;54311;51.726;5.154;2022-12-24T01:37:38;50.38;;;10.23;;
67442;SDS011;54311;51.726;5.154;2022-12-24T01:40:05;46.40;;;9.20;;
67442;SDS011;54311;51.726;5.154;2022-12-24T01:42:50;45.83;;;8.57;;
67442;SDS011;54311;51.726;5.154;2022-12-24T01:45:40;43.88;;;8.48;;
67442;SDS011;54311;51.726;5.154;2022-12-24T01:48:13;44.30;;;8.13;;
67442;SDS011;54311;51.726;5.154;2022-12-24T01:50:41;38.03;;;8.05;;
67442;SDS011;54311;51.726;5.154;2022-12-24T01:53:07;50.50;;;8.80;;
67442;SDS011;54311;51.726;5.154;2022-12-24T01:55:32;43.85;;;8.73;;
67442;SDS011;54311;51.726;5.154;2022-12-24T01:57:58;41.72;;;7.85;;
67442;SDS011;54311;51.726;5.154;2022-12-24T02:00:24;37.97;;;8.32;;
67442;SDS011;54311;51.726;5.154;2022-12-24T02:02:49;38.28;;;7.90;;
67442;SDS011;54311;51.726;5.154;2022-12-24T02:05:24;41.90;;;9.48;;
67442;SDS011;54311;51.726;5.154;2022-12-24T02:07:52;51.30;;;9.95;;
67442;SDS011;54311;51.726;5.154;2022-12-24T02:10:18;44.80;;;8.85;;
67442;SDS011;54311;51.726;5.154;2022-12-24T02:12:43;47.88;;;8.48;;
67442;SDS011;54311;51.726;5.154;2022-12-24T02:15:10;48.90;;;9.95;;
67442;SDS011;54311;51.726;5.154;2022-12-24T02:35:13;49.63;;;10.40;;
67442;SDS011;54311;51.726;5.154;2022-12-24T02:37:46;52.78;;;10.20;;
67442;SDS011;54311;51.726;5.154;2022-12-24T02:40:15;47.25;;;10.05;;
67442;SDS011;54311;51.726;5.154;2022-12-24T02:42:47;55.63;;;9.90;;
67442;SDS011;54311;51.726;5.154;2022-12-24T02:45:16;46.15;;;10.13;;
67442;SDS011;54311;51.726;5.154;2022-12-24T02:47:43;57.58;;;13.32;;
67442;SDS011;54311;51.726;5.154;2022-12-24T02:50:11;61.28;;;11.18;;
67442;SDS011;54311;51.726;5.154;2022-12-24T02:52:41;52.08;;;11.93;;
67442;SDS011;54311;51.726;5.154;2022-12-24T02:55:10;55.38;;;10.88;;
67442;SDS011;54311;51.726;5.154;2022-12-24T03:11:36;50.50;;;11.03;;
67442;SDS011;54311;51.726;5.154;2022-12-24T03:14:02;53.67;;;11.52;;
67442;SDS011;54311;51.726;5.154;2022-12-24T03:16:28;44.70;;;10.45;;
67442;SDS011;54311;51.726;5.154;2022-12-24T03:18:54;47.30;;;9.00;;
67442;SDS011;54311;51.726;5.154;2022-12-24T03:23:55;50.08;;;9.15;;
67442;SDS011;54311;51.726;5.154;2022-12-24T03:26:21;45.95;;;9.38;;
67442;SDS011;54311;51.726;5.154;2022-12-24T03:28:47;51.58;;;9.85;;
67442;SDS011;54311;51.726;5.154;2022-12-24T03:31:13;46.13;;;11.40;;
67442;SDS011;54311;51.726;5.154;2022-12-24T03:33:38;49.92;;;10.13;;
67442;SDS011;54311;51.726;5.154;2022-12-24T03:36:04;47.55;;;10.23;;
67442;SDS011;54311;51.726;5.154;2022-12-24T03:38:30;56.10;;;9.80;;
67442;SDS011;54311;51.726;5.154;2022-12-24T03:40:56;39.95;;;8.68;;
67442;SDS011;54311;51.726;5.154;2022-12-24T03:43:21;48.53;;;10.90;;
67442;SDS011;54311;51.726;5.154;2022-12-24T03:45:46;42.35;;;9.32;;
67442;SDS011;54311;51.726;5.154;2022-12-24T03:48:12;48.22;;;10.07;;
67442;SDS011;54311;51.726;5.154;2022-12-24T03:50:37;51.33;;;9.82;;
67442;SDS011;54311;51.726;5.154;2022-12-24T03:53:03;52.10;;;9.98;;
67442;SDS011;54311;51.726;5.154;2022-12-24T03:55:28;44.22;;;10.38;;
67442;SDS011;54311;51.726;5.154;2022-12-24T03:57:53;40.92;;;9.10;;
67442;SDS011;54311;51.726;5.154;2022-12-24T04:00:19;49.72;;;10.05;;
67442;SDS011;54311;51.726;5.154;2022-12-24T04:02:44;46.13;;;9.15;;
67442;SDS011;54311;51.726;5.154;2022-12-24T04:05:14;47.80;;;10.23;;
67442;SDS011;54311;51.726;5.154;2022-12-24T04:07:40;46.53;;;9.55;;
67442;SDS011;54311;51.726;5.154;2022-12-24T04:10:06;53.05;;;11.88;;
67442;SDS011;54311;51.726;5.154;2022-12-24T04:12:31;41.15;;;10.05;;
67442;SDS011;54311;51.726;5.154;2022-12-24T04:14:57;42.33;;;9.63;;
67442;SDS011;54311;51.726;5.154;2022-12-24T04:17:22;50.53;;;10.27;;
67442;SDS011;54311;51.726;5.154;2022-12-24T04:19:48;43.33;;;10.50;;
67442;SDS011;54311;51.726;5.154;2022-12-24T04:22:14;52.78;;;10.48;;
67442;SDS011;54311;51.726;5.154;2022-12-24T04:24:39;48.60;;;10.32;;
67442;SDS011;54311;51.726;5.154;2022-12-24T04:27:04;45.55;;;10.40;;
67442;SDS011;54311;51.726;5.154;2022-12-24T04:29:30;44.40;;;10.35;;
67442;SDS011;54311;51.726;5.154;2022-12-24T04:31:56;43.42;;;10.23;;
67442;SDS011;54311;51.726;5.154;2022-12-24T04:34:21;44.22;;;10.90;;
67442;SDS011;54311;51.726;5.154;2022-12-24T04:36:47;48.47;;;9.40;;
67442;SDS011;54311;51.726;5.154;2022-12-24T04:39:12;52.97;;;10.40;;
67442;SDS011;54311;51.726;5.154;2022-12-24T04:41:37;39.35;;;9.60;;
67442;SDS011;54311;51.726;5.154;2022-12-24T04:44:03;52.15;;;9.35;;
67442;SDS011;54311;51.726;5.154;2022-12-24T04:46:28;45.47;;;9.73;;
67442;SDS011;54311;51.726;5.154;2022-12-24T04:48:54;52.17;;;8.98;;
67442;SDS011;54311;51.726;5.154;2022-12-24T04:51:20;52.50;;;11.77;;
67442;SDS011;54311;51.726;5.154;2022-12-24T04:53:46;55.25;;;10.85;;
67442;SDS011;54311;51.726;5.154;2022-12-24T04:56:13;51.60;;;10.82;;
67442;SDS011;54311;51.726;5.154;2022-12-24T04:58:39;37.17;;;10.13;;
67442;SDS011;54311;51.726;5.154;2022-12-24T05:01:05;53.03;;;11.15;;
67442;SDS011;54311;51.726;5.154;2022-12-24T05:03:31;49.42;;;9.63;;
67442;SDS011;54311;51.726;5.154;2022-12-24T05:06:01;45.95;;;10.20;;
67442;SDS011;54311;51.726;5.154;2022-12-24T05:08:27;46.25;;;9.05;;
67442;SDS011;54311;51.726;5.154;2022-12-24T05:10:54;55.67;;;10.35;;
67442;SDS011;54311;51.726;5.154;2022-12-24T05:13:20;47.05;;;10.05;;
67442;SDS011;54311;51.726;5.154;2022-12-24T05:15:46;44.72;;;10.35;;
67442;SDS011;54311;51.726;5.154;2022-12-24T05:18:11;59.83;;;11.52;;
67442;SDS011;54311;51.726;5.154;2022-12-24T05:20:36;51.97;;;10.85;;
67442;SDS011;54311;51.726;5.154;2022-12-24T05:23:02;58.78;;;12.20;;
67442;SDS011;54311;51.726;5.154;2022-12-24T05:25:46;55.15;;;12.13;;
67442;SDS011;54311;51.726;5.154;2022-12-24T05:28:29;41.47;;;10.60;;
67442;SDS011;54311;51.726;5.154;2022-12-24T05:30:55;71.22;;;13.60;;
67442;SDS011;54311;51.726;5.154;2022-12-24T05:33:20;51.22;;;11.10;;
67442;SDS011;54311;51.726;5.154;2022-12-24T05:35:45;52.28;;;10.57;;
67442;SDS011;54311;51.726;5.154;2022-12-24T05:38:11;61.42;;;12.55;;
67442;SDS011;54311;51.726;5.154;2022-12-24T05:40:36;61.03;;;12.73;;
67442;SDS011;54311;51.726;5.154;2022-12-24T05:43:01;49.13;;;11.77;;
67442;SDS011;54311;51.726;5.154;2022-12-24T05:45:27;54.63;;;11.57;;
67442;SDS011;54311;51.726;5.154;2022-12-24T05:47:52;51.55;;;11.35;;
67442;SDS011;54311;51.726;5.154;2022-12-24T05:50:18;57.65;;;11.55;;
67442;SDS011;54311;51.726;5.154;2022-12-24T05:52:43;66.63;;;13.02;;
67442;SDS011;54311;51.726;5.154;2022-12-24T05:55:08;53.40;;;10.55;;
67442;SDS011;54311;51.726;5.154;2022-12-24T05:57:34;55.25;;;11.02;;
67442;SDS011;54311;51.726;5.154;2022-12-24T05:59:59;49.92;;;10.88;;
67442;SDS011;54311;51.726;5.154;2022-12-24T06:02:24;51.17;;;10.70;;
67442;SDS011;54311;51.726;5.154;2022-12-24T06:04:50;55.97;;;11.27;;
67442;SDS011;54311;51.726;5.154;2022-12-24T06:07:15;50.47;;;11.18;;
67442;SDS011;54311;51.726;5.154;2022-12-24T06:09:40;44.72;;;10.07;;
67442;SDS011;54311;51.726;5.154;2022-12-24T06:12:06;58.92;;;11.82;;
67442;SDS011;54311;51.726;5.154;2022-12-24T06:14:31;52.22;;;9.55;;
67442;SDS011;54311;51.726;5.154;2022-12-24T06:16:56;58.10;;;10.68;;
67442;SDS011;54311;51.726;5.154;2022-12-24T06:19:22;50.95;;;11.93;;
67442;SDS011;54311;51.726;5.154;2022-12-24T06:21:47;60.38;;;10.52;;
67442;SDS011;54311;51.726;5.154;2022-12-24T06:24:12;40.08;;;10.38;;
67442;SDS011;54311;51.726;5.154;2022-12-24T06:26:38;40.80;;;10.40;;
67442;SDS011;54311;51.726;5.154;2022-12-24T06:29:03;39.53;;;9.18;;
67442;SDS011;54311;51.726;5.154;2022-12-24T06:31:29;44.03;;;10.35;;
67442;SDS011;54311;51.726;5.154;2022-12-24T06:33:54;53.03;;;9.98;;
67442;SDS011;54311;51.726;5.154;2022-12-24T06:36:23;31.52;;;8.50;;
67442;SDS011;54311;51.726;5.154;2022-12-24T06:38:50;39.63;;;9.50;;
67442;SDS011;54311;51.726;5.154;2022-12-24T06:41:16;53.05;;;11.20;;
67442;SDS011;54311;51.726;5.154;2022-12-24T06:43:42;43.08;;;10.10;;
67442;SDS011;54311;51.726;5.154;2022-12-24T06:46:11;45.97;;;9.13;;
67442;SDS011;54311;51.726;5.154;2022-12-24T06:48:36;40.67;;;10.45;;
67442;SDS011;54311;51.726;5.154;2022-12-24T06:51:02;52.25;;;9.48;;
67442;SDS011;54311;51.726;5.154;2022-12-24T06:53:28;51.75;;;11.13;;
67442;SDS011;54311;51.726;5.154;2022-12-24T06:55:59;42.85;;;9.60;;
67442;SDS011;54311;51.726;5.154;2022-12-24T06:58:29;40.45;;;10.15;;
67442;SDS011;54311;51.726;5.154;2022-12-24T07:00:54;48.35;;;10.23;;
67442;SDS011;54311;51.726;5.154;2022-12-24T07:03:20;45.10;;;10.02;;
67442;SDS011;54311;51.726;5.154;2022-12-24T07:05:45;43.78;;;10.07;;
67442;SDS011;54311;51.726;5.154;2022-12-24T07:08:10;40.03;;;8.63;;
67442;SDS011;54311;51.726;5.154;2022-12-24T07:10:35;36.28;;;9.68;;
67442;SDS011;54311;51.726;5.154;2022-12-24T07:13:01;48.22;;;9.95;;
67442;SDS011;54311;51.726;5.154;2022-12-24T07:15:26;45.28;;;9.98;;
67442;SDS011;54311;51.726;5.154;2022-12-24T07:17:51;42.00;;;10.02;;
67442;SDS011;54311;51.726;5.154;2022-12-24T07:20:17;40.90;;;9.05;;
67442;SDS011;54311;51.726;5.154;2022-12-24T07:22:42;50.25;;;10.00;;
67442;SDS011;54311;51.726;5.154;2022-12-24T07:25:08;52.55;;;10.13;;
67442;SDS011;54311;51.726;5.154;2022-12-24T07:27:33;47.33;;;9.98;;
67442;SDS011;54311;51.726;5.154;2022-12-24T07:29:59;44.03;;;9.02;;
67442;SDS011;54311;51.726;5.154;2022-12-24T07:32:24;53.45;;;11.07;;
67442;SDS011;54311;51.726;5.154;2022-12-24T07:34:49;52.42;;;10.63;;
67442;SDS011;54311;51.726;5.154;2022-12-24T07:37:15;52.63;;;10.05;;
67442;SDS011;54311;51.726;5.154;2022-12-24T07:39:40;45.40;;;9.52;;
67442;SDS011;54311;51.726;5.154;2022-12-24T07:42:06;48.67;;;10.55;;
67442;SDS011;54311;51.726;5.154;2022-12-24T07:44:32;50.55;;;9.85;;
67442;SDS011;54311;51.726;5.154;2022-12-24T07:46:58;53.90;;;11.13;;
67442;SDS011;54311;51.726;5.154;2022-12-24T07:49:23;46.35;;;10.32;;
67442;SDS011;54311;51.726;5.154;2022-12-24T07:51:48;66.60;;;12.90;;
67442;SDS011;54311;51.726;5.154;2022-12-24T07:54:14;63.40;;;11.55;;
67442;SDS011;54311;51.726;5.154;2022-12-24T07:56:39;57.67;;;10.63;;
67442;SDS011;54311;51.726;5.154;2022-12-24T07:59:04;51.05;;;11.13;;
67442;SDS011;54311;51.726;5.154;2022-12-24T08:01:30;60.72;;;11.00;;
67442;SDS011;54311;51.726;5.154;2022-12-24T08:03:55;48.42;;;10.20;;
67442;SDS011;54311;51.726;5.154;2022-12-24T08:06:20;43.72;;;10.27;;
67442;SDS011;54311;51.726;5.154;2022-12-24T08:08:46;55.90;;;10.70;;
67442;SDS011;54311;51.726;5.154;2022-12-24T08:11:11;47.03;;;10.27;;
67442;SDS011;54311;51.726;5.154;2022-12-24T08:13:37;58.17;;;11.20;;
67442;SDS011;54311;51.726;5.154;2022-12-24T08:16:02;57.33;;;11.88;;
67442;SDS011;54311;51.726;5.154;2022-12-24T08:18:28;50.75;;;12.73;;
67442;SDS011;54311;51.726;5.154;2022-12-24T08:20:53;56.22;;;12.85;;
67442;SDS011;54311;51.726;5.154;2022-12-24T08:23:19;43.63;;;11.82;;
67442;SDS011;54311;51.726;5.154;2022-12-24T08:25:44;52.88;;;13.90;;
67442;SDS011;54311;51.726;5.154;2022-12-24T08:28:11;57.67;;;12.77;;
67442;SDS011;54311;51.726;5.154;2022-12-24T08:30:37;38.75;;;11.32;;
67442;SDS011;54311;51.726;5.154;2022-12-24T08:33:03;51.22;;;12.65;;
67442;SDS011;54311;51.726;5.154;2022-12-24T08:35:29;45.50;;;10.05;;
67442;SDS011;54311;51.726;5.154;2022-12-24T08:37:54;57.33;;;12.82;;
67442;SDS011;54311;51.726;5.154;2022-12-24T08:40:19;55.35;;;11.38;;
67442;SDS011;54311;51.726;5.154;2022-12-24T08:42:45;44.67;;;9.60;;
67442;SDS011;54311;51.726;5.154;2022-12-24T08:45:10;50.42;;;12.50;;
67442;SDS011;54311;51.726;5.154;2022-12-24T08:47:36;54.25;;;11.10;;
67442;SDS011;54311;51.726;5.154;2022-12-24T08:50:02;46.47;;;10.63;;
67442;SDS011;54311;51.726;5.154;2022-12-24T08:52:28;44.15;;;11.48;;
67442;SDS011;54311;51.726;5.154;2022-12-24T08:54:54;40.67;;;9.45;;
67442;SDS011;54311;51.726;5.154;2022-12-24T08:57:19;40.10;;;9.63;;
67442;SDS011;54311;51.726;5.154;2022-12-24T08:59:44;55.45;;;10.00;;
67442;SDS011;54311;51.726;5.154;2022-12-24T09:02:10;44.65;;;9.02;;
67442;SDS011;54311;51.726;5.154;2022-12-24T09:04:38;41.67;;;9.18;;
67442;SDS011;54311;51.726;5.154;2022-12-24T09:07:04;49.15;;;10.25;;
67442;SDS011;54311;51.726;5.154;2022-12-24T09:09:30;42.83;;;9.55;;
67442;SDS011;54311;51.726;5.154;2022-12-24T09:11:55;53.75;;;12.18;;
67442;SDS011;54311;51.726;5.154;2022-12-24T09:14:20;59.35;;;12.85;;
67442;SDS011;54311;51.726;5.154;2022-12-24T09:16:46;50.65;;;11.30;;
67442;SDS011;54311;51.726;5.154;2022-12-24T09:19:11;51.50;;;11.98;;
67442;SDS011;54311;51.726;5.154;2022-12-24T09:21:36;49.13;;;10.23;;
67442;SDS011;54311;51.726;5.154;2022-12-24T09:24:02;47.38;;;12.77;;
67442;SDS011;54311;51.726;5.154;2022-12-24T09:26:28;36.60;;;10.35;;
67442;SDS011;54311;51.726;5.154;2022-12-24T09:28:55;53.92;;;11.45;;
67442;SDS011;54311;51.726;5.154;2022-12-24T09:31:21;52.38;;;11.13;;
67442;SDS011;54311;51.726;5.154;2022-12-24T09:33:47;52.40;;;11.27;;
67442;SDS011;54311;51.726;5.154;2022-12-24T09:36:13;57.65;;;10.50;;
67442;SDS011;54311;51.726;5.154;2022-12-24T09:38:39;47.65;;;10.32;;
67442;SDS011;54311;51.726;5.154;2022-12-24T09:41:14;43.85;;;10.85;;
67442;SDS011;54311;51.726;5.154;2022-12-24T09:43:51;58.50;;;11.27;;
67442;SDS011;54311;51.726;5.154;2022-12-24T09:46:27;44.47;;;9.95;;
67442;SDS011;54311;51.726;5.154;2022-12-24T09:48:56;50.72;;;10.95;;
67442;SDS011;54311;51.726;5.154;2022-12-24T09:51:30;58.92;;;12.18;;
67442;SDS011;54311;51.726;5.154;2022-12-24T09:54:02;53.58;;;11.65;;
67442;SDS011;54311;51.726;5.154;2022-12-24T09:56:38;61.37;;;11.37;;
67442;SDS011;54311;51.726;5.154;2022-12-24T09:59:06;52.60;;;12.07;;
67442;SDS011;54311;51.726;5.154;2022-12-24T10:01:35;38.90;;;10.02;;
67442;SDS011;54311;51.726;5.154;2022-12-24T10:04:02;46.42;;;10.90;;
67442;SDS011;54311;51.726;5.154;2022-12-24T10:12:12;44.40;;;9.98;;
67442;SDS011;54311;51.726;5.154;2022-12-24T10:22:56;52.97;;;10.43;;
67442;SDS011;54311;51.726;5.154;2022-12-24T10:25:29;52.58;;;10.50;;
67442;SDS011;54311;51.726;5.154;2022-12-24T10:28:01;56.97;;;12.63;;
67442;SDS011;54311;51.726;5.154;2022-12-24T10:30:29;47.47;;;10.38;;
67442;SDS011;54311;51.726;5.154;2022-12-24T10:32:55;39.92;;;8.68;;
67442;SDS011;54311;51.726;5.154;2022-12-24T10:37:47;48.08;;;10.68;;
67442;SDS011;54311;51.726;5.154;2022-12-24T10:40:25;57.92;;;9.73;;
67442;SDS011;54311;51.726;5.154;2022-12-24T10:42:51;47.20;;;10.23;;
67442;SDS011;54311;51.726;5.154;2022-12-24T10:45:17;49.33;;;10.73;;
67442;SDS011;54311;51.726;5.154;2022-12-24T10:47:48;51.55;;;10.95;;
67442;SDS011;54311;51.726;5.154;2022-12-24T10:50:31;42.20;;;10.10;;
67442;SDS011;54311;51.726;5.154;2022-12-24T10:55:37;37.75;;;8.82;;
67442;SDS011;54311;51.726;5.154;2022-12-24T10:58:04;46.10;;;10.93;;
67442;SDS011;54311;51.726;5.154;2022-12-24T11:00:30;44.40;;;10.13;;
67442;SDS011;54311;51.726;5.154;2022-12-24T11:05:36;38.67;;;9.93;;
67442;SDS011;54311;51.726;5.154;2022-12-24T11:08:03;47.33;;;10.90;;
67442;SDS011;54311;51.726;5.154;2022-12-24T11:10:44;40.50;;;9.30;;
67442;SDS011;54311;51.726;5.154;2022-12-24T11:13:24;46.20;;;9.48;;
67442;SDS011;54311;51.726;5.154;2022-12-24T11:18:29;46.92;;;8.40;;
67442;SDS011;54311;51.726;5.154;2022-12-24T11:20:55;50.17;;;10.15;;
67442;SDS011;54311;51.726;5.154;2022-12-24T11:23:23;43.08;;;9.55;;
67442;SDS011;54311;51.726;5.154;2022-12-24T11:25:49;46.15;;;9.35;;
67442;SDS011;54311;51.726;5.154;2022-12-24T11:31:00;47.67;;;10.45;;
67442;SDS011;54311;51.726;5.154;2022-12-24T11:34:02;54.15;;;9.82;;
67442;SDS011;54311;51.726;5.154;2022-12-24T11:36:48;36.25;;;8.50;;
67442;SDS011;54311;51.726;5.154;2022-12-24T11:39:18;40.67;;;8.02;;
67442;SDS011;54311;51.726;5.154;2022-12-24T11:41:45;43.85;;;8.52;;
67442;SDS011;54311;51.726;5.154;2022-12-24T11:44:11;41.35;;;7.82;;
67442;SDS011;54311;51.726;5.154;2022-12-24T11:46:40;45.95;;;8.15;;
67442;SDS011;54311;51.726;5.154;2022-12-24T11:51:35;39.85;;;7.95;;
67442;SDS011;54311;51.726;5.154;2022-12-24T11:54:08;32.58;;;8.00;;
67442;SDS011;54311;51.726;5.154;2022-12-24T11:56:48;39.92;;;7.80;;
67442;SDS011;54311;51.726;5.154;2022-12-24T11:59:18;42.10;;;7.97;;
67442;SDS011;54311;51.726;5.154;2022-12-24T12:09:58;35.28;;;7.72;;
67442;SDS011;54311;51.726;5.154;2022-12-24T12:12:33;34.03;;;7.63;;
67442;SDS011;54311;51.726;5.154;2022-12-24T12:15:04;36.97;;;8.10;;
67442;SDS011;54311;51.726;5.154;2022-12-24T12:17:39;43.75;;;8.98;;
67442;SDS011;54311;51.726;5.154;2022-12-24T12:20:34;42.90;;;7.97;;
67442;SDS011;54311;51.726;5.154;2022-12-24T12:30:59;36.20;;;8.27;;
67442;SDS011;54311;51.726;5.154;2022-12-24T12:33:39;39.78;;;8.48;;
67442;SDS011;54311;51.726;5.154;2022-12-24T12:36:07;46.42;;;8.88;;
67442;SDS011;54311;51.726;5.154;2022-12-24T12:38:34;40.95;;;9.40;;
67442;SDS011;54311;51.726;5.154;2022-12-24T12:43:56;40.42;;;8.38;;
67442;SDS011;54311;51.726;5.154;2022-12-24T12:46:54;35.50;;;7.70;;
67442;SDS011;54311;51.726;5.154;2022-12-24T12:52:35;33.08;;;7.32;;
67442;SDS011;54311;51.726;5.154;2022-12-24T12:57:59;45.83;;;9.57;;
67442;SDS011;54311;51.726;5.154;2022-12-24T13:00:25;38.47;;;9.68;;
67442;SDS011;54311;51.726;5.154;2022-12-24T13:08:14;33.92;;;7.75;;
67442;SDS011;54311;51.726;5.154;2022-12-24T13:10:55;36.00;;;8.07;;
67442;SDS011;54311;51.726;5.154;2022-12-24T13:16:38;39.13;;;7.85;;
67442;SDS011;54311;51.726;5.154;2022-12-24T13:22:01;36.22;;;6.85;;
67442;SDS011;54311;51.726;5.154;2022-12-24T13:24:27;35.85;;;8.80;;
67442;SDS011;54311;51.726;5.154;2022-12-24T13:27:29;43.35;;;8.75;;
67442;SDS011;54311;51.726;5.154;2022-12-24T13:32:35;38.25;;;9.23;;
67442;SDS011;54311;51.726;5.154;2022-12-24T13:35:21;34.50;;;9.57;;
67442;SDS011;54311;51.726;5.154;2022-12-24T13:37:49;31.50;;;8.32;;
67442;SDS011;54311;51.726;5.154;2022-12-24T13:40:16;43.90;;;9.20;;
67442;SDS011;54311;51.726;5.154;2022-12-24T13:48:39;34.08;;;8.48;;
67442;SDS011;54311;51.726;5.154;2022-12-24T13:51:01;32.70;;;8.93;;
67442;SDS011;54311;51.726;5.154;2022-12-24T13:53:46;42.28;;;10.48;;
67442;SDS011;54311;51.726;5.154;2022-12-24T13:58:44;36.05;;;7.95;;
67442;SDS011;54311;51.726;5.154;2022-12-24T14:01:15;40.13;;;8.38;;
67442;SDS011;54311;51.726;5.154;2022-12-24T14:03:47;42.83;;;8.82;;
67442;SDS011;54311;51.726;5.154;2022-12-24T14:06:26;39.65;;;9.15;;
67442;SDS011;54311;51.726;5.154;2022-12-24T14:08:54;38.83;;;8.82;;
67442;SDS011;54311;51.726;5.154;2022-12-24T14:11:22;36.97;;;8.50;;
67442;SDS011;54311;51.726;5.154;2022-12-24T14:13:50;44.65;;;8.68;;
67442;SDS011;54311;51.726;5.154;2022-12-24T14:16:21;36.60;;;8.60;;
67442;SDS011;54311;51.726;5.154;2022-12-24T14:18:49;38.95;;;9.68;;
67442;SDS011;54311;51.726;5.154;2022-12-24T14:21:58;40.95;;;9.30;;
67442;SDS011;54311;51.726;5.154;2022-12-24T14:24:22;30.77;;;8.10;;
67442;SDS011;54311;51.726;5.154;2022-12-24T14:26:51;27.92;;;8.30;;
67442;SDS011;54311;51.726;5.154;2022-12-24T14:31:51;42.20;;;9.60;;
67442;SDS011;54311;51.726;5.154;2022-12-24T14:34:17;31.77;;;10.10;;
67442;SDS011;54311;51.726;5.154;2022-12-24T14:36:43;31.60;;;9.68;;
67442;SDS011;54311;51.726;5.154;2022-12-24T14:39:14;28.70;;;8.60;;
67442;SDS011;54311;51.726;5.154;2022-12-24T14:44:35;37.13;;;9.65;;
67442;SDS011;54311;51.726;5.154;2022-12-24T14:47:08;32.78;;;9.68;;
67442;SDS011;54311;51.726;5.154;2022-12-24T14:52:45;33.35;;;8.88;;
67442;SDS011;54311;51.726;5.154;2022-12-24T14:55:36;31.70;;;8.15;;
67442;SDS011;54311;51.726;5.154;2022-12-24T15:01:02;24.85;;;8.57;;
67442;SDS011;54311;51.726;5.154;2022-12-24T15:04:01;33.88;;;8.77;;
67442;SDS011;54311;51.726;5.154;2022-12-24T15:06:27;38.75;;;10.48;;
67442;SDS011;54311;51.726;5.154;2022-12-24T15:08:54;37.30;;;10.85;;
67442;SDS011;54311;51.726;5.154;2022-12-24T15:11:22;38.20;;;11.73;;
67442;SDS011;54311;51.726;5.154;2022-12-24T15:13:58;29.13;;;10.85;;
67442;SDS011;54311;51.726;5.154;2022-12-24T15:16:26;40.58;;;10.55;;
67442;SDS011;54311;51.726;5.154;2022-12-24T15:18:52;33.53;;;11.38;;
67442;SDS011;54311;51.726;5.154;2022-12-24T15:21:23;30.65;;;10.35;;
67442;SDS011;54311;51.726;5.154;2022-12-24T15:23:52;41.17;;;12.48;;
67442;SDS011;54311;51.726;5.154;2022-12-24T15:28:45;36.20;;;10.90;;
67442;SDS011;54311;51.726;5.154;2022-12-24T15:31:14;35.38;;;11.75;;
67442;SDS011;54311;51.726;5.154;2022-12-24T15:33:45;41.70;;;11.88;;
67442;SDS011;54311;51.726;5.154;2022-12-24T15:36:12;34.08;;;11.95;;
67442;SDS011;54311;51.726;5.154;2022-12-24T15:38:39;34.28;;;11.88;;
67442;SDS011;54311;51.726;5.154;2022-12-24T15:41:08;31.17;;;10.73;;
67442;SDS011;54311;51.726;5.154;2022-12-24T15:43:43;34.30;;;10.73;;
67442;SDS011;54311;51.726;5.154;2022-12-24T15:46:16;31.38;;;11.15;;
67442;SDS011;54311;51.726;5.154;2022-12-24T15:48:51;24.10;;;10.48;;
67442;SDS011;54311;51.726;5.154;2022-12-24T15:51:35;38.10;;;12.45;;
67442;SDS011;54311;51.726;5.154;2022-12-24T15:54:05;39.08;;;14.65;;
67442;SDS011;54311;51.726;5.154;2022-12-24T15:56:36;39.05;;;14.98;;
67442;SDS011;54311;51.726;5.154;2022-12-24T15:59:49;41.55;;;14.40;;
67442;SDS011;54311;51.726;5.154;2022-12-24T16:01:52;40.08;;;13.25;;
67442;SDS011;54311;51.726;5.154;2022-12-24T16:04:25;29.50;;;12.07;;
67442;SDS011;54311;51.726;5.154;2022-12-24T16:06:55;35.10;;;12.10;;
67442;SDS011;54311;51.726;5.154;2022-12-24T16:11:56;38.55;;;12.57;;
67442;SDS011;54311;51.726;5.154;2022-12-24T16:14:22;35.25;;;13.88;;
67442;SDS011;54311;51.726;5.154;2022-12-24T16:16:48;41.72;;;15.20;;
67442;SDS011;54311;51.726;5.154;2022-12-24T16:19:16;41.40;;;18.20;;
67442;SDS011;54311;51.726;5.154;2022-12-24T16:21:45;50.53;;;23.95;;
67442;SDS011;54311;51.726;5.154;2022-12-24T16:24:18;43.67;;;20.98;;
67442;SDS011;54311;51.726;5.154;2022-12-24T16:26:45;53.60;;;20.90;;
67442;SDS011;54311;51.726;5.154;2022-12-24T16:29:12;44.47;;;18.30;;
67442;SDS011;54311;51.726;5.154;2022-12-24T16:31:58;36.38;;;17.67;;
67442;SDS011;54311;51.726;5.154;2022-12-24T16:34:24;42.38;;;19.02;;
67442;SDS011;54311;51.726;5.154;2022-12-24T16:36:51;39.28;;;17.63;;
67442;SDS011;54311;51.726;5.154;2022-12-24T16:39:18;42.20;;;15.80;;
67442;SDS011;54311;51.726;5.154;2022-12-24T16:41:48;43.20;;;16.85;;